Flight Track Log - Related Links

Times and Time Zones

All times are in EDT time to prevent confusion due to time zone crossing. See the AAL8 flight status page for this flight to view local times or setup timezone preferences in your user account.

Time Position Orientation Groundspeed Altitude Reporting Facility
EDT Latitude Longitude Course Direction KTS MPH feet Rate Location/Type
Wed 11:09:00 PM 21.1766 -157.3594 100° East  Level FlightAware
Wed 11:09:17 PM 21.1920 -157.7680 100° East 284 327 8,000  Level FlightAware
Wed 11:09:42 PM 21.1920 -157.7400 90° East 287 330 9,100 2,314 Climbing FlightAware
Wed 11:10:27 PM 21.1940 -157.6650 88° East 325 374 10,700 1,835 Climbing FlightAware
Wed 11:11:07 PM 21.1960 -157.6010 88° East 368 423 11,700 1,835 Climbing FlightAware
Wed 11:11:52 PM 21.2060 -157.5100 83° East 401 461 13,300 2,400 Climbing FlightAware
Wed 11:12:32 PM 21.2150 -157.4310 83° East 410 472 15,100 2,320 Climbing FlightAware
Wed 11:14:22 PM 21.2450 -157.2080 82° East 448 516 19,100 1,819 Climbing FlightAware
Wed 11:15:07 PM 21.2570 -157.1150 82° East 453 521 19,800 494 Climbing FlightAware
Wed 11:15:47 PM 21.2670 -157.0390 82° East 453 521 19,800  Level FlightAware
Wed 11:16:27 PM 21.2770 -156.9640 82° East 453 521 19,800  Level FlightAware
Wed 11:17:07 PM 21.2870 -156.8880 82° East 453 521 19,800  Level FlightAware
Wed 11:17:47 PM 21.2970 -156.8120 82° East 453 521 19,800  Level FlightAware
Wed 11:18:37 PM 21.3090 -156.7170 82° East 453 521 19,800 5,103 Level FlightAware
Wed 11:19:34 PM 21.3333 -156.4333 82° East 520 598 28,900 5,692 Climbing Honolulu Center
Wed 11:20:34 PM 21.3833 -156.3000 68° East 510 587 30,900 1,850 Climbing Honolulu Center
Wed 11:21:34 PM 21.4167 -156.1500 77° East 500 575 32,600 1,600 Climbing Honolulu Center
Wed 11:22:34 PM 21.4500 -156.0000 77° East 500 575 34,100 1,339 Climbing Honolulu Center
Wed 11:23:35 PM 21.4833 -155.8667 75° East 500 575 35,300 950 Climbing Honolulu Center
Wed 11:24:34 PM 21.5167 -155.7167 77° East 500 575 36,000 350 Climbing Honolulu Center
Wed 11:25:35 PM 21.5333 -155.5667 83° East 490 564 36,000  Level Honolulu Center
Wed 11:26:35 PM 21.5667 -155.4333 75° East 490 564 36,000  Level Honolulu Center
Wed 11:27:35 PM 21.6000 -155.2833 77° East 490 564 36,000  Level Honolulu Center
Wed 11:28:35 PM 21.6333 -155.1500 75° East 490 564 36,000  Level Honolulu Center
Wed 11:29:35 PM 21.6667 -155.0000 77° East 490 564 36,000  Level Honolulu Center
Wed 11:30:35 PM 21.7000 -154.8500 77° East 490 564 36,000  Level Honolulu Center
Wed 11:31:36 PM 21.7333 -154.7167 75° East 490 564 36,000  Level Honolulu Center
Wed 11:32:36 PM 21.7667 -154.5667 77° East 490 564 36,000  Level Honolulu Center
Wed 11:33:36 PM 21.8000 -154.4333 75° East 490 564 36,000  Level Honolulu Center
Wed 11:34:36 PM 21.8333 -154.2833 77° East 500 575 36,000  Level Honolulu Center
Wed 11:35:36 PM 21.8667 -154.1333 77° East 500 575 36,000  Level Honolulu Center
Wed 11:36:36 PM 21.9000 -153.9833 77° East 500 575 36,000  Level Honolulu Center
Wed 11:37:36 PM 21.9167 -153.8333 83° East 500 575 36,000  Level Honolulu Center
Wed 11:38:36 PM 21.9500 -153.7000 75° East 500 575 36,000  Level Honolulu Center
Wed 11:39:36 PM 21.9833 -153.5667 75° East 500 575 36,000  Level Honolulu Center
Wed 11:40:37 PM 22.0167 -153.4167 76° East 500 575 36,000  Level Honolulu Center
Wed 11:41:36 PM 22.0500 -153.2833 75° East 490 564 36,000  Level Honolulu Center
Wed 11:42:37 PM 22.0833 -153.1333 76° East 500 575 36,000  Level Honolulu Center
Wed 11:43:37 PM 22.1167 -152.9667 78° East 500 575 36,000  Level Honolulu Center
Wed 11:44:37 PM 22.1333 -152.8333 82° East 510 587 36,000  Level Honolulu Center
Wed 11:46:00 PM 22.1769 -152.6358 77° East  Level FlightAware
Wed 11:53:00 PM 22.4445 -151.6567 62° Northeast  Level FlightAware
Wed 11:53:13 PM 22.3500 -151.8833 62° Northeast 510 587 36,000  Level Oakland Oceanic
Wed 11:54:00 PM 22.5081 -151.5266 62° Northeast  Level FlightAware
Wed 11:55:00 PM 22.5716 -151.3964 62° Northeast  Level FlightAware
Wed 11:56:00 PM 22.6349 -151.2661 62° Northeast  Level FlightAware
Wed 11:57:00 PM 22.6982 -151.1357 62° Northeast  Level FlightAware
Wed 11:58:00 PM 22.7613 -151.0052 62° Northeast  Level FlightAware
Wed 11:59:00 PM 22.8786 -150.7966 62° Northeast 510 587 36,000  Level FlightAware
Thu 12:00:00 AM 22.9441 -150.6601 62° Northeast 510 587 36,000  Level FlightAware
Thu 12:01:00 AM 23.0096 -150.5236 63° Northeast 510 587 36,000  Level FlightAware
Thu 12:02:00 AM 23.0749 -150.3869 63° Northeast 510 587 36,000  Level FlightAware
Thu 12:03:00 AM 23.1401 -150.2500 63° Northeast 510 587 36,000  Level FlightAware
Thu 12:04:00 AM 23.2052 -150.1131 63° Northeast 510 587 36,000  Level FlightAware
Thu 12:05:00 AM 23.2701 -149.9760 63° Northeast 510 587 36,000  Level FlightAware
Thu 12:06:00 AM 23.3350 -149.8387 63° Northeast 510 587 36,000  Level FlightAware
Thu 12:07:00 AM 23.3997 -149.7014 63° Northeast 510 587 36,000  Level FlightAware
Thu 12:08:00 AM 23.4643 -149.5639 63° Northeast 510 587 36,000  Level FlightAware
Thu 12:09:00 AM 23.5288 -149.4262 63° Northeast 510 587 36,000  Level FlightAware
Thu 12:10:00 AM 23.5931 -149.2885 63° Northeast 510 587 36,000  Level FlightAware
Thu 12:11:00 AM 23.6574 -149.1505 63° Northeast 510 587 36,000  Level FlightAware
Thu 12:12:00 AM 23.7215 -149.0125 63° Northeast 510 587 36,000  Level FlightAware
Thu 12:13:00 AM 23.7855 -148.8743 63° Northeast 510 587 36,000  Level FlightAware
Thu 12:14:00 AM 23.8494 -148.7360 63° Northeast 510 587 36,000  Level FlightAware
Thu 12:15:00 AM 23.9131 -148.5976 63° Northeast 510 587 36,000  Level FlightAware
Thu 12:16:00 AM 23.9767 -148.4590 63° Northeast 510 587 36,000  Level FlightAware
Thu 12:17:00 AM 24.0402 -148.3203 63° Northeast 510 587 36,000  Level FlightAware
Thu 12:18:00 AM 24.1036 -148.1814 63° Northeast 510 587 36,000  Level FlightAware
Thu 12:19:00 AM 24.1669 -148.0424 64° Northeast 510 587 36,000  Level FlightAware
Thu 12:20:00 AM 24.2300 -147.9033 64° Northeast 510 587 36,000  Level FlightAware
Thu 12:21:00 AM 24.2930 -147.7640 64° Northeast 510 587 36,000  Level FlightAware
Thu 12:22:00 AM 24.3559 -147.6246 64° Northeast 510 587 36,000  Level FlightAware
Thu 12:23:00 AM 24.4186 -147.4850 64° Northeast 510 587 36,000  Level FlightAware
Thu 12:24:00 AM 24.4812 -147.3453 64° Northeast 510 587 36,000  Level FlightAware
Thu 12:25:00 AM 24.5437 -147.2055 64° Northeast 510 587 36,000  Level FlightAware
Thu 12:26:00 AM 24.6061 -147.0656 64° Northeast 510 587 36,000  Level FlightAware
Thu 12:27:00 AM 24.6683 -146.9254 64° Northeast 510 587 36,000  Level FlightAware
Thu 12:28:00 AM 24.7304 -146.7852 64° Northeast 510 587 36,000  Level FlightAware
Thu 12:29:00 AM 24.7924 -146.6448 64° Northeast 510 587 36,000  Level FlightAware
Thu 12:30:00 AM 24.8542 -146.5043 64° Northeast 510 587 36,000  Level FlightAware
Thu 12:31:00 AM 24.9159 -146.3636 64° Northeast 510 587 36,000  Level FlightAware
Thu 12:32:00 AM 24.9775 -146.2228 64° Northeast 510 587 36,000  Level FlightAware
Thu 12:33:00 AM 25.0389 -146.0819 64° Northeast 510 587 36,000  Level FlightAware
Thu 12:34:00 AM 25.1002 -145.9408 64° Northeast 510 587 36,000  Level FlightAware
Thu 12:35:00 AM 25.1614 -145.7995 64° Northeast 510 587 36,000  Level FlightAware
Thu 12:36:00 AM 25.2224 -145.6582 65° Northeast 510 587 36,000  Level FlightAware
Thu 12:37:00 AM 25.2833 -145.5167 65° Northeast 510 587 36,000  Level FlightAware
Thu 12:38:00 AM 25.3425 -145.3780 65° Northeast 510 587 36,000  Level FlightAware
Thu 12:38:44 AM 25.2833 -145.5167 65° Northeast 509 586 36,000  Level Oakland Oceanic
Thu 12:39:00 AM 25.4016 -145.2392 65° Northeast 510 587 36,000  Level FlightAware
Thu 12:40:00 AM 25.4605 -145.1003 65° Northeast 510 587 36,000  Level FlightAware
Thu 12:41:00 AM 25.5193 -144.9612 65° Northeast 510 587 36,000  Level FlightAware
Thu 12:42:00 AM 25.5779 -144.8220 65° Northeast 510 587 36,000  Level FlightAware
Thu 12:43:00 AM 25.6365 -144.6826 65° Northeast 510 587 36,000  Level FlightAware
Thu 12:44:00 AM 25.7037 -144.5219 65° Northeast 509 586 36,000  Level FlightAware
Thu 12:45:00 AM 25.7632 -144.3792 65° Northeast 509 586 36,000  Level FlightAware
Thu 12:46:00 AM 25.8226 -144.2364 65° Northeast 509 586 36,000  Level FlightAware
Thu 12:47:00 AM 25.8818 -144.0934 65° Northeast 509 586 36,000  Level FlightAware
Thu 12:48:00 AM 25.9409 -143.9503 65° Northeast 509 586 36,000  Level FlightAware
Thu 12:49:00 AM 25.9999 -143.8071 65° Northeast 509 586 36,000  Level FlightAware
Thu 12:50:00 AM 26.0587 -143.6637 66° East 509 586 36,000  Level FlightAware
Thu 12:51:00 AM 26.1173 -143.5201 66° East 509 586 36,000  Level FlightAware
Thu 12:52:00 AM 26.1759 -143.3764 66° East 509 586 36,000  Level FlightAware
Thu 12:53:00 AM 26.2342 -143.2326 66° East 509 586 36,000  Level FlightAware
Thu 12:54:00 AM 26.2925 -143.0886 66° East 509 586 36,000  Level FlightAware
Thu 12:55:00 AM 26.3506 -142.9445 66° East 509 586 36,000  Level FlightAware
Thu 12:56:00 AM 26.4085 -142.8002 66° East 509 586 36,000  Level FlightAware
Thu 12:57:00 AM 26.4663 -142.6558 66° East 509 586 36,000  Level FlightAware
Thu 12:58:00 AM 26.5240 -142.5113 66° East 509 586 36,000  Level FlightAware
Thu 12:59:00 AM 26.5815 -142.3666 66° East 509 586 36,000  Level FlightAware
Thu 01:00:00 AM 26.6389 -142.2217 66° East 509 586 36,000  Level FlightAware
Thu 01:01:00 AM 26.6961 -142.0768 66° East 509 586 36,000  Level FlightAware
Thu 01:02:00 AM 26.7532 -141.9316 66° East 509 586 36,000  Level FlightAware
Thu 01:03:00 AM 26.8101 -141.7863 66° East 509 586 36,000  Level FlightAware
Thu 01:04:00 AM 26.8668 -141.6409 66° East 509 586 36,000  Level FlightAware
Thu 01:05:00 AM 26.9235 -141.4953 66° East 509 586 36,000  Level FlightAware
Thu 01:06:00 AM 26.9799 -141.3496 67° East 509 586 36,000  Level FlightAware
Thu 01:07:00 AM 27.0363 -141.2038 67° East 509 586 36,000  Level FlightAware
Thu 01:08:00 AM 27.0924 -141.0578 67° East 509 586 36,000  Level FlightAware
Thu 01:09:00 AM 27.1485 -140.9116 67° East 509 586 36,000  Level FlightAware
Thu 01:10:00 AM 27.2043 -140.7653 67° East 509 586 36,000  Level FlightAware
Thu 01:11:00 AM 27.2601 -140.6189 67° East 509 586 36,000  Level FlightAware
Thu 01:12:00 AM 27.3156 -140.4722 67° East 509 586 36,000  Level FlightAware
Thu 01:13:00 AM 27.3710 -140.3255 67° East 509 586 36,000  Level FlightAware
Thu 01:14:00 AM 27.4263 -140.1786 67° East 509 586 36,000  Level FlightAware
Thu 01:15:00 AM 27.4814 -140.0316 67° East 509 586 36,000  Level FlightAware
Thu 01:16:00 AM 27.5364 -139.8844 67° East 509 586 36,000  Level FlightAware
Thu 01:17:00 AM 27.5912 -139.7371 67° East 509 586 36,000  Level FlightAware
Thu 01:18:00 AM 27.6458 -139.5896 67° East 509 586 36,000  Level FlightAware
Thu 01:19:00 AM 27.7003 -139.4420 67° East 509 586 36,000  Level FlightAware
Thu 01:20:00 AM 27.7546 -139.2942 67° East 509 586 36,000  Level FlightAware
Thu 01:21:00 AM 27.8088 -139.1463 68° East 509 586 36,000  Level FlightAware
Thu 01:22:00 AM 27.8628 -138.9982 68° East 509 586 36,000  Level FlightAware
Thu 01:23:00 AM 27.9167 -138.8500 68° East 509 586 36,000  Level FlightAware
Thu 01:24:00 AM 27.9687 -138.7061 68° East 509 586 36,000  Level FlightAware
Thu 01:24:42 AM 27.9167 -138.8500 68° East 506 582 36,000  Level Oakland Oceanic
Thu 01:25:00 AM 28.0207 -138.5620 68° East 509 586 36,000  Level FlightAware
Thu 01:26:00 AM 28.0724 -138.4177 68° East 509 586 36,000  Level FlightAware
Thu 01:27:00 AM 28.1241 -138.2734 68° East 509 586 36,000  Level FlightAware
Thu 01:28:00 AM 28.1755 -138.1289 68° East 509 586 36,000  Level FlightAware
Thu 01:29:00 AM 28.2269 -137.9842 68° East 509 586 36,000  Level FlightAware
Thu 01:30:00 AM 28.2855 -137.8183 68° East 506 582 36,000  Level FlightAware
Thu 01:31:00 AM 28.3375 -137.6703 68° East 506 582 36,000  Level FlightAware
Thu 01:32:00 AM 28.3894 -137.5222 68° East 506 582 36,000  Level FlightAware
Thu 01:33:00 AM 28.4412 -137.3740 68° East 506 582 36,000  Level FlightAware
Thu 01:34:00 AM 28.4927 -137.2256 68° East 506 582 36,000  Level FlightAware
Thu 01:35:00 AM 28.5441 -137.0770 69° East 506 582 36,000  Level FlightAware
Thu 01:36:00 AM 28.5954 -136.9283 69° East 506 582 36,000  Level FlightAware
Thu 01:37:00 AM 28.6465 -136.7795 69° East 506 582 36,000  Level FlightAware
Thu 01:38:00 AM 28.6974 -136.6305 69° East 506 582 36,000  Level FlightAware
Thu 01:39:00 AM 28.7482 -136.4814 69° East 506 582 36,000  Level FlightAware
Thu 01:40:00 AM 28.7988 -136.3321 69° East 506 582 36,000  Level FlightAware
Thu 01:41:00 AM 28.8492 -136.1827 69° East 506 582 36,000  Level FlightAware
Thu 01:42:00 AM 28.8995 -136.0332 69° East 506 582 36,000  Level FlightAware
Thu 01:43:00 AM 28.9496 -135.8835 69° East 506 582 36,000  Level FlightAware
Thu 01:44:00 AM 28.9995 -135.7336 69° East 506 582 36,000  Level FlightAware
Thu 01:45:00 AM 29.0493 -135.5836 69° East 506 582 36,000  Level FlightAware
Thu 01:46:00 AM 29.0989 -135.4335 69° East 506 582 36,000  Level FlightAware
Thu 01:47:00 AM 29.1483 -135.2832 69° East 506 582 36,000  Level FlightAware
Thu 01:48:00 AM 29.1976 -135.1328 69° East 506 582 36,000  Level FlightAware
Thu 01:49:00 AM 29.2467 -134.9822 70° East 506 582 36,000  Level FlightAware
Thu 01:50:00 AM 29.2956 -134.8315 70° East 506 582 36,000  Level FlightAware
Thu 01:51:00 AM 29.3444 -134.6806 70° East 506 582 36,000  Level FlightAware
Thu 01:52:00 AM 29.3930 -134.5296 70° East 506 582 36,000  Level FlightAware
Thu 01:53:00 AM 29.4414 -134.3785 70° East 506 582 36,000  Level FlightAware
Thu 01:54:00 AM 29.4897 -134.2272 70° East 506 582 36,000  Level FlightAware
Thu 01:55:00 AM 29.5378 -134.0758 70° East 506 582 36,000  Level FlightAware
Thu 01:56:00 AM 29.5857 -133.9242 70° East 506 582 36,000  Level FlightAware
Thu 01:57:00 AM 29.6334 -133.7725 70° East 506 582 36,000  Level FlightAware
Thu 01:58:00 AM 29.6810 -133.6206 70° East 506 582 36,000  Level FlightAware
Thu 01:59:00 AM 29.7283 -133.4686 70° East 506 582 36,000  Level FlightAware
Thu 02:00:00 AM 29.7756 -133.3164 70° East 506 582 36,000  Level FlightAware
Thu 02:01:00 AM 29.8226 -133.1641 70° East 506 582 36,000  Level FlightAware
Thu 02:02:00 AM 29.8695 -133.0117 71° East 506 582 36,000  Level FlightAware
Thu 02:03:00 AM 29.9162 -132.8591 71° East 506 582 36,000  Level FlightAware
Thu 02:04:00 AM 29.9627 -132.7064 71° East 506 582 36,000  Level FlightAware
Thu 02:05:00 AM 30.0090 -132.5535 71° East 506 582 36,000  Level FlightAware
Thu 02:06:00 AM 30.0552 -132.4005 71° East 506 582 36,000  Level FlightAware
Thu 02:07:00 AM 30.1012 -132.2474 71° East 506 582 36,000  Level FlightAware
Thu 02:08:00 AM 30.1470 -132.0941 71° East 506 582 36,000  Level FlightAware
Thu 02:09:00 AM 30.1926 -131.9406 71° East 506 582 36,000  Level FlightAware
Thu 02:10:00 AM 30.2381 -131.7870 71° East 506 582 36,000  Level FlightAware
Thu 02:11:00 AM 30.2833 -131.6333 81° East 506 582 36,000  Level FlightAware
Thu 02:12:00 AM 30.3044 -131.4793 81° East 506 582 36,000  Level FlightAware
Thu 02:12:47 AM 30.2833 -131.6333 81° East 505 581 36,000  Level Oakland Oceanic
Thu 02:13:00 AM 30.3252 -131.3253 81° East 506 582 36,000  Level FlightAware
Thu 02:14:00 AM 30.3459 -131.1712 81° East 506 582 36,000  Level FlightAware
Thu 02:15:00 AM 30.3664 -131.0170 81° East 506 582 36,000  Level FlightAware
Thu 02:16:00 AM 30.3867 -130.8627 81° East 506 582 36,000  Level FlightAware
Thu 02:17:00 AM 30.4068 -130.7084 81° East 506 582 36,000  Level FlightAware
Thu 02:18:00 AM 30.4268 -130.5540 82° East 506 582 36,000  Level FlightAware
Thu 02:19:00 AM 30.4731 -130.1895 82° East 505 581 36,000  Level FlightAware
Thu 02:20:00 AM 30.4932 -130.0287 82° East 505 581 36,000  Level FlightAware
Thu 02:21:00 AM 30.5131 -129.8678 82° East 505 581 36,000  Level FlightAware
Thu 02:22:00 AM 30.5329 -129.7070 82° East 505 581 36,000  Level FlightAware
Thu 02:23:00 AM 30.5524 -129.5460 82° East 505 581 36,000  Level FlightAware
Thu 02:24:00 AM 30.5717 -129.3849 82° East 505 581 36,000  Level FlightAware
Thu 02:25:00 AM 30.5908 -129.2238 82° East 505 581 36,000  Level FlightAware
Thu 02:26:00 AM 30.6097 -129.0627 82° East 505 581 36,000  Level FlightAware
Thu 02:27:00 AM 30.6284 -128.9015 82° East 505 581 36,000  Level FlightAware
Thu 02:28:00 AM 30.6469 -128.7402 82° East 505 581 36,000  Level FlightAware
Thu 02:29:00 AM 30.6653 -128.5788 83° East 505 581 36,000  Level FlightAware
Thu 02:30:00 AM 30.6834 -128.4174 83° East 505 581 36,000  Level FlightAware
Thu 02:31:00 AM 30.7013 -128.2560 83° East 505 581 36,000  Level FlightAware
Thu 02:32:00 AM 30.7190 -128.0944 83° East 505 581 36,000  Level FlightAware
Thu 02:33:00 AM 30.7366 -127.9329 83° East 505 581 36,000  Level FlightAware
Thu 02:34:00 AM 30.7539 -127.7712 83° East 505 581 36,000  Level FlightAware
Thu 02:35:00 AM 30.7710 -127.6095 83° East 505 581 36,000  Level FlightAware
Thu 02:36:00 AM 30.7879 -127.4477 83° East 505 581 36,000  Level FlightAware
Thu 02:37:00 AM 30.8046 -127.2859 83° East 505 581 36,000  Level FlightAware
Thu 02:38:00 AM 30.8212 -127.1241 83° East 505 581 36,000  Level FlightAware
Thu 02:39:00 AM 30.8375 -126.9621 83° East 505 581 36,000  Level FlightAware
Thu 02:40:00 AM 30.8536 -126.8001 83° East 505 581 36,000  Level FlightAware
Thu 02:41:00 AM 30.8695 -126.6381 84° East 505 581 36,000  Level FlightAware
Thu 02:42:00 AM 30.8852 -126.4760 84° East 505 581 36,000  Level FlightAware
Thu 02:43:00 AM 30.9007 -126.3139 84° East 505 581 36,000  Level FlightAware
Thu 02:44:00 AM 30.9160 -126.1517 84° East 505 581 36,000  Level FlightAware
Thu 02:45:00 AM 30.9312 -125.9894 84° East 505 581 36,000  Level FlightAware
Thu 02:46:00 AM 30.9461 -125.8271 84° East 505 581 36,000  Level FlightAware
Thu 02:47:00 AM 30.9608 -125.6648 84° East 505 581 36,000  Level FlightAware
Thu 02:48:00 AM 30.9753 -125.5024 84° East 505 581 36,000  Level FlightAware
Thu 02:49:00 AM 30.9895 -125.3400 84° East 505 581 36,000  Level FlightAware
Thu 02:50:00 AM 31.0036 -125.1775 84° East 505 581 36,000  Level FlightAware
Thu 02:51:00 AM 31.0175 -125.0149 84° East 505 581 36,000  Level FlightAware
Thu 02:52:00 AM 31.0312 -124.8523 84° East 505 581 36,000  Level FlightAware
Thu 02:53:00 AM 31.0447 -124.6897 85° East 505 581 36,000  Level FlightAware
Thu 02:54:00 AM 31.0580 -124.5270 85° East 505 581 36,000  Level FlightAware
Thu 02:55:00 AM 31.0710 -124.3643 85° East 505 581 36,000  Level FlightAware
Thu 02:56:00 AM 31.0839 -124.2015 85° East 505 581 36,000  Level FlightAware
Thu 02:57:00 AM 31.0966 -124.0387 85° East 505 581 36,000  Level FlightAware
Thu 02:58:00 AM 31.1090 -123.8758 85° East 505 581 36,000  Level FlightAware
Thu 02:59:00 AM 31.1213 -123.7129 85° East 505 581 36,000  Level FlightAware
Thu 03:00:00 AM 31.1333 -123.5500 77° East 505 581 36,000  Level FlightAware
Thu 03:01:00 AM 31.1643 -123.3971 77° East 505 581 36,000  Level FlightAware
Thu 03:02:00 AM 31.1950 -123.2440 77° East 505 581 36,000  Level FlightAware
Thu 03:03:00 AM 31.2256 -123.0909 77° East 505 581 36,000  Level FlightAware
Thu 03:03:12 AM 31.2075 -123.1917 77° East 564 649 36,000  Level Los Center
Thu 03:04:00 AM 31.2560 -122.9377 77° East 505 581 36,000  Level FlightAware
Thu 03:04:13 AM 31.2389 -123.0425 76° East 480 552 36,000  Level Los Center
Thu 03:05:00 AM 31.2862 -122.7843 77° East 505 581 36,000  Level FlightAware
Thu 03:05:13 AM 31.2794 -122.8939 72° East 485 558 36,000  Level Los Center
Thu 03:06:00 AM 31.3163 -122.6309 77° East 505 581 36,000  Level FlightAware
Thu 03:07:00 AM 31.3461 -122.4774 77° East 505 581 36,000  Level FlightAware
Thu 03:08:00 AM 31.3758 -122.3238 77° East 505 581 36,000 247 Level FlightAware
Thu 03:11:03 AM 31.6570 -122.1340 72° East 468 539 37,000 275 Climbing FlightAware
Thu 03:11:38 AM 31.6900 -122.0670 60° Northeast 468 539 37,000  Level FlightAware
Thu 03:12:28 AM 31.7360 -121.9730 60° Northeast 468 539 37,000  Level FlightAware
Thu 03:13:08 AM 31.7730 -121.8980 60° Northeast 468 539 37,000  Level FlightAware
Thu 03:13:53 AM 31.8360 -121.7590 62° Northeast 470 541 37,000  Level FlightAware
Thu 03:14:48 AM 31.8900 -121.6500 60° Northeast 470 541 37,000  Level FlightAware
Thu 03:15:28 AM 31.9350 -121.5490 62° Northeast 472 543 37,000  Level FlightAware
Thu 03:16:23 AM 31.9920 -121.4260 61° Northeast 471 542 37,000  Level FlightAware
Thu 03:17:03 AM 32.0330 -121.3350 62° Northeast 471 542 37,000  Level FlightAware
Thu 03:17:53 AM 32.0870 -121.2170 62° Northeast 471 542 37,000  Level FlightAware
Thu 03:18:33 AM 32.1270 -121.1330 61° Northeast 471 542 37,000  Level FlightAware
Thu 03:19:13 AM 32.1700 -121.0390 62° Northeast 472 543 37,000  Level FlightAware
Thu 03:19:53 AM 32.2070 -120.9610 61° Northeast 472 543 37,000  Level FlightAware
Thu 03:20:33 AM 32.2540 -120.8610 61° Northeast 473 544 37,000  Level FlightAware
Thu 03:21:13 AM 32.2980 -120.7670 61° Northeast 474 545 37,000  Level FlightAware
Thu 03:22:03 AM 32.3520 -120.6530 61° Northeast 475 547 37,000  Level FlightAware
Thu 03:22:33 AM 32.3820 -120.5890 61° Northeast 475 547 37,000  Level FlightAware
Thu 03:23:28 AM 32.4430 -120.4600 61° Northeast 476 548 37,000  Level FlightAware
Thu 03:24:08 AM 32.4850 -120.3700 61° Northeast 475 547 37,000  Level FlightAware
Thu 03:24:48 AM 32.5280 -120.2780 61° Northeast 475 547 37,000  Level FlightAware
Thu 03:25:33 AM 32.5750 -120.1770 61° Northeast 473 544 37,000  Level FlightAware
Thu 03:26:13 AM 32.6180 -120.0850 61° Northeast 474 545 37,000  Level FlightAware
Thu 03:26:53 AM 32.6600 -119.9940 61° Northeast 474 545 37,000  Level FlightAware
Thu 03:27:38 AM 32.7080 -119.8910 61° Northeast 474 545 37,000  Level FlightAware
Thu 03:28:18 AM 32.7470 -119.8050 62° Northeast 475 547 37,000  Level FlightAware
Thu 03:29:03 AM 32.7970 -119.6970 61° Northeast 475 547 37,000  Level FlightAware
Thu 03:29:43 AM 32.8390 -119.6050 61° Northeast 475 547 37,000  Level FlightAware
Thu 03:30:28 AM 32.8870 -119.4990 62° Northeast 476 548 37,000  Level FlightAware
Thu 03:31:08 AM 32.9290 -119.4050 62° Northeast 476 548 37,000  Level FlightAware
Thu 03:31:48 AM 32.9690 -119.3170 62° Northeast 476 548 37,000  Level FlightAware
Thu 03:32:33 AM 33.0170 -119.2110 62° Northeast 478 550 37,000  Level FlightAware
Thu 03:33:13 AM 33.0590 -119.1180 62° Northeast 479 551 37,000  Level FlightAware
Thu 03:33:58 AM 33.1050 -119.0160 62° Northeast 480 552 37,000  Level FlightAware
Thu 03:34:38 AM 33.1470 -118.9210 62° Northeast 481 554 37,000  Level FlightAware
Thu 03:35:18 AM 33.1880 -118.8270 62° Northeast 481 554 37,000  Level FlightAware
Thu 03:36:03 AM 33.2350 -118.7200 62° Northeast 483 556 37,000  Level FlightAware
Thu 03:36:43 AM 33.2780 -118.6240 62° Northeast 483 556 37,000  Level FlightAware
Thu 03:37:28 AM 33.3230 -118.5190 63° Northeast 484 557 37,000  Level FlightAware
Thu 03:38:08 AM 33.3580 -118.4230 66° East 489 563 37,000  Level FlightAware
Thu 03:38:48 AM 33.3700 -118.3160 82° East 490 564 37,000  Level FlightAware
Thu 03:39:33 AM 33.3780 -118.1900 86° East 492 566 37,000  Level FlightAware
Thu 03:40:13 AM 33.3840 -118.0830 86° East 493 567 37,000  Level FlightAware
Thu 03:40:53 AM 33.3900 -117.9750 86° East 493 567 37,000  Level FlightAware
Thu 03:41:38 AM 33.3960 -117.8540 87° East 493 567 37,000  Level FlightAware
Thu 03:42:18 AM 33.4020 -117.7440 86° East 493 567 37,000  Level FlightAware
Thu 03:43:03 AM 33.4090 -117.6220 86° East 493 567 37,000  Level FlightAware
Thu 03:43:43 AM 33.4150 -117.5110 86° East 493 567 37,000  Level FlightAware
Thu 03:44:28 AM 33.4210 -117.3930 86° East 494 568 37,000  Level FlightAware
Thu 03:45:08 AM 33.4270 -117.2850 86° East 494 568 37,000  Level FlightAware
Thu 03:45:53 AM 33.4350 -117.1560 86° East 494 568 37,000  Level FlightAware
Thu 03:46:33 AM 33.4410 -117.0480 86° East 494 568 37,000  Level FlightAware
Thu 03:47:13 AM 33.4460 -116.9390 87° East 493 567 37,000  Level FlightAware
Thu 03:47:58 AM 33.4520 -116.8210 86° East 495 570 37,000  Level FlightAware
Thu 03:48:38 AM 33.4570 -116.7110 87° East 495 570 37,000  Level FlightAware
Thu 03:49:23 AM 33.4630 -116.5830 87° East 497 572 37,000  Level FlightAware
Thu 03:50:03 AM 33.4680 -116.4750 87° East 498 573 37,000  Level FlightAware
Thu 03:50:43 AM 33.4730 -116.3640 87° East 498 573 37,000  Level FlightAware
Thu 03:51:23 AM 33.4780 -116.2620 87° East 497 572 37,000  Level FlightAware
Thu 03:52:08 AM 33.4830 -116.1330 87° East 497 572 37,000  Level FlightAware
Thu 03:52:53 AM 33.4880 -116.0110 87° East 497 572 37,000  Level FlightAware
Thu 03:53:33 AM 33.4930 -115.9020 87° East 496 571 37,000  Level FlightAware
Thu 03:54:28 AM 33.4980 -115.7620 88° East 495 570 37,000  Level FlightAware
Thu 03:55:08 AM 33.5020 -115.6690 87° East 495 570 37,000  Level FlightAware
Thu 03:55:48 AM 33.5060 -115.5760 87° East 495 570 37,000  Level FlightAware
Thu 03:56:28 AM 33.5110 -115.4830 86° East 495 570 37,000  Level FlightAware
Thu 03:57:08 AM 33.5150 -115.3890 87° East 495 570 37,000  Level FlightAware
Thu 03:57:58 AM 33.5200 -115.2730 87° East 495 570 37,000  Level FlightAware
Thu 03:58:38 AM 33.5240 -115.1790 87° East 495 570 37,000  Level FlightAware
Thu 03:59:18 AM 33.5280 -115.0860 87° East 495 570 37,000  Level FlightAware
Thu 03:59:58 AM 33.5260 -114.8870 91° East 37,000  Level FlightAware
Thu 04:00:58 AM 33.5300 -114.7480 88° East 487 560 37,000  Level FlightAware
Thu 04:01:38 AM 33.5320 -114.6560 88° East 487 560 37,000  Level FlightAware
Thu 04:02:28 AM 33.5380 -114.4780 88° East 489 563 37,000  Level FlightAware
Thu 04:03:18 AM 33.5410 -114.3480 88° East 491 565 37,000  Level FlightAware
Thu 04:04:03 AM 33.5450 -114.2220 88° East 491 565 37,000  Level FlightAware
Thu 04:04:58 AM 33.5500 -114.0790 88° East 493 567 37,000  Level FlightAware
Thu 04:05:33 AM 33.5520 -113.9830 89° East 495 570 37,000  Level FlightAware
Thu 04:06:23 AM 33.5560 -113.8460 88° East 497 572 37,000  Level FlightAware
Thu 04:07:03 AM 33.5590 -113.7360 88° East 497 572 37,000  Level FlightAware
Thu 04:07:48 AM 33.5620 -113.6060 88° East 497 572 37,000  Level FlightAware
Thu 04:08:28 AM 33.5640 -113.4940 89° East 497 572 37,000  Level FlightAware
Thu 04:09:08 AM 33.5670 -113.3890 88° East 496 571 37,000  Level FlightAware
Thu 04:09:53 AM 33.5690 -113.2680 89° East 497 572 37,000  Level FlightAware
Thu 04:10:43 AM 33.5710 -113.1280 89° East 497 572 37,000  Level FlightAware
Thu 04:11:23 AM 33.5730 -113.0200 89° East 496 571 37,000  Level FlightAware
Thu 04:12:03 AM 33.5750 -112.9150 89° East 496 571 37,000  Level FlightAware
Thu 04:12:48 AM 33.5770 -112.7760 89° East 497 572 37,000  Level FlightAware
Thu 04:13:33 AM 33.5790 -112.6600 89° East 500 575 37,000  Level FlightAware
Thu 04:14:18 AM 33.5820 -112.5410 88° East 503 579 37,000  Level FlightAware
Thu 04:15:13 AM 33.5840 -112.3870 89° East 503 579 37,000  Level FlightAware
Thu 04:15:48 AM 33.5850 -112.2990 89° East 503 579 37,000  Level FlightAware
Thu 04:16:28 AM 33.5860 -112.1830 89° East 503 579 37,000  Level FlightAware
Thu 04:17:18 AM 33.5880 -112.0410 89° East 502 578 37,000  Level FlightAware
Thu 04:17:58 AM 33.5890 -111.9360 89° East 502 578 37,000  Level FlightAware
Thu 04:18:48 AM 33.5910 -111.7850 89° East 501 577 37,000  Level FlightAware
Thu 04:19:33 AM 33.5910 -111.6620 90° East 504 580 37,000  Level FlightAware
Thu 04:20:23 AM 33.5920 -111.4920 90° East 505 581 37,000  Level FlightAware
Thu 04:20:58 AM 33.5930 -111.3840 89° East 505 581 37,000  Level FlightAware
Thu 04:21:43 AM 33.5930 -111.2630 90° East 506 582 37,000  Level FlightAware
Thu 04:22:23 AM 33.5940 -111.1490 89° East 507 583 37,000  Level FlightAware
Thu 04:23:08 AM 33.5940 -111.0230 90° East 510 587 37,000  Level FlightAware
Thu 04:24:03 AM 33.5940 -110.8730 90° East 515 593 37,000  Level FlightAware
Thu 04:24:48 AM 33.5950 -110.7420 89° East 514 592 37,000  Level FlightAware
Thu 04:25:43 AM 33.5950 -110.6260 90° East 513 590 37,000  Level FlightAware
Thu 04:26:28 AM 33.5940 -110.4560 90° East 512 589 37,000  Level FlightAware
Thu 04:27:08 AM 33.5940 -110.3380 90° East 516 594 37,000  Level FlightAware
Thu 04:27:48 AM 33.5940 -110.2860 90° East 517 595 37,000  Level FlightAware
Thu 04:28:33 AM 33.5940 -110.1690 90° East 517 595 37,000  Level FlightAware
Thu 04:29:13 AM 33.5940 -110.0720 90° East 517 595 37,000  Level FlightAware
Thu 04:29:48 AM 33.5930 -109.8910 90° East 513 590 37,000  Level FlightAware
Thu 04:30:33 AM 33.5930 -109.7740 90° East 513 590 37,000  Level FlightAware
Thu 04:31:23 AM 33.5930 -109.6530 90° East 513 590 37,000  Level FlightAware
Thu 04:32:03 AM 33.5930 -109.5560 90° East 513 590 37,000  Level FlightAware
Thu 04:32:43 AM 33.5930 -109.4590 90° East 513 590 37,000  Level FlightAware
Thu 04:33:23 AM 33.5890 -109.3260 92° East 504 580 37,000  Level FlightAware
Thu 04:34:03 AM 33.5890 -109.2300 90° East 504 580 37,000  Level FlightAware
Thu 04:34:53 AM 33.5890 -109.1110 90° East 504 580 37,000  Level FlightAware
Thu 04:35:33 AM 33.5890 -109.0160 90° East 504 580 37,000  Level FlightAware
Thu 04:36:13 AM 33.5890 -108.9210 90° East 504 580 37,000  Level FlightAware
Thu 04:36:53 AM 33.5890 -108.8260 90° East 504 580 37,000  Level FlightAware
Thu 04:37:38 AM 33.5800 -108.5720 92° East 512 589 37,000  Level FlightAware
Thu 04:38:23 AM 33.5780 -108.4560 91° East 512 589 37,000  Level FlightAware
Thu 04:39:03 AM 33.5770 -108.3590 91° East 512 589 37,000  Level FlightAware
Thu 04:39:38 AM 33.5750 -108.2360 91° East 513 590 37,000  Level FlightAware
Thu 04:40:28 AM 33.5730 -108.0810 91° East 511 588 37,000  Level FlightAware
Thu 04:41:08 AM 33.5710 -107.9750 91° East 510 587 37,000  Level FlightAware
Thu 04:41:48 AM 33.5690 -107.8700 91° East 509 586 37,000  Level FlightAware
Thu 04:42:28 AM 33.5680 -107.7740 91° East 509 586 37,000  Level FlightAware
Thu 04:43:08 AM 33.5660 -107.6780 91° East 509 586 37,000  Level FlightAware
Thu 04:43:58 AM 33.5650 -107.5580 91° East 509 586 37,000  Level FlightAware
Thu 04:44:38 AM 33.5630 -107.4620 91° East 509 586 37,000  Level FlightAware
Thu 04:45:18 AM 33.5620 -107.3660 91° East 509 586 37,000  Level FlightAware
Thu 04:45:58 AM 33.5610 -107.2700 91° East 509 586 37,000  Level FlightAware
Thu 04:46:48 AM 33.5590 -107.1500 91° East 509 586 37,000  Level FlightAware
Thu 04:47:28 AM 33.5570 -107.0530 91° East 509 586 37,000  Level FlightAware
Thu 04:48:08 AM 33.5560 -106.9570 91° East 509 586 37,000  Level FlightAware
Thu 04:48:48 AM 33.5550 -106.8610 91° East 509 586 37,000  Level FlightAware
Thu 04:49:28 AM 33.5530 -106.7650 91° East 509 586 37,000  Level FlightAware
Thu 04:50:08 AM 33.5520 -106.6690 91° East 509 586 37,000  Level FlightAware
Thu 04:50:58 AM 33.5500 -106.5490 91° East 509 586 37,000  Level FlightAware
Thu 04:51:59 AM 33.5419 -106.1125 91° East 518 596 37,000  Level Albuquerque Center
Thu 04:52:59 AM 33.5356 -105.9394 92° East 518 596 37,000  Level Albuquerque Center
Thu 04:54:00 AM 33.5294 -105.7683 92° East 516 594 37,000  Level Albuquerque Center
Thu 04:55:00 AM 33.5194 -105.5744 93° East 516 594 37,000  Level Albuquerque Center
Thu 04:56:00 AM 33.5108 -105.4053 93° East 511 588 37,000 250 Level Albuquerque Center
Thu 04:57:00 AM 33.5022 -105.2333 93° East 514 592 37,500 900 Climbing Albuquerque Center
Thu 04:58:00 AM 33.4956 -105.0606 93° East 517 595 38,800 744 Climbing Albuquerque Center
Thu 04:59:01 AM 33.4878 -104.8881 93° East 517 595 39,000 99 Climbing Albuquerque Center
Thu 05:00:01 AM 33.4808 -104.7164 93° East 515 593 39,000  Level Albuquerque Center
Thu 05:01:01 AM 33.4742 -104.5667 93° East 510 587 39,000  Level Albuquerque Center
Thu 05:02:01 AM 33.4661 -104.3986 93° East 510 587 39,000  Level Albuquerque Center
Thu 05:03:01 AM 33.4578 -104.2089 93° East 503 579 39,000  Level Albuquerque Center
Thu 05:04:02 AM 33.4486 -104.0428 94° East 501 577 39,000  Level Albuquerque Center
Thu 05:05:02 AM 33.4406 -103.8767 93° East 501 577 39,000  Level Albuquerque Center
Thu 05:06:02 AM 33.4322 -103.7089 93° East 506 582 39,000  Level Albuquerque Center
Thu 05:07:02 AM 33.4242 -103.5631 94° East 508 585 39,000  Level Albuquerque Center
Thu 05:08:02 AM 33.4153 -103.3967 94° East 504 580 39,000  Level Albuquerque Center
Thu 05:09:03 AM 33.4044 -103.2272 94° East 508 585 39,000  Level Albuquerque Center
Thu 05:14:28 AM 33.3260 -102.3070 94° East 516 594 39,000  Level FlightAware
Thu 05:15:08 AM 33.3180 -102.1930 95° East 516 594 39,000  Level FlightAware
Thu 05:15:53 AM 33.3120 -102.0820 94° East 516 594 39,000  Level FlightAware
Thu 05:16:38 AM 33.3020 -101.9450 95° East 517 595 39,000  Level FlightAware
Thu 05:17:18 AM 33.2960 -101.8470 94° East 517 595 39,000  Level FlightAware
Thu 05:17:58 AM 33.2900 -101.7500 94° East 517 595 39,000  Level FlightAware
Thu 05:18:38 AM 33.2760 -101.6060 97° East 521 600 39,000  Level FlightAware
Thu 05:19:18 AM 33.2690 -101.5080 95° East 521 600 39,000  Level FlightAware
Thu 05:20:08 AM 33.2600 -101.3860 95° East 521 600 39,000  Level FlightAware
Thu 05:20:48 AM 33.2530 -101.2880 95° East 521 600 39,000  Level FlightAware
Thu 05:21:28 AM 33.2450 -101.1910 96° East 521 600 39,000  Level FlightAware
Thu 05:22:08 AM 33.2380 -101.0930 95° East 521 600 39,000  Level FlightAware
Thu 05:22:48 AM 33.2310 -100.9960 95° East 521 600 39,000  Level FlightAware
Thu 05:23:38 AM 33.2220 -100.8740 95° East 521 600 39,000  Level FlightAware
Thu 05:24:18 AM 33.2150 -100.7760 95° East 521 600 39,000  Level FlightAware
Thu 05:24:58 AM 33.2080 -100.6780 95° East 521 600 39,000  Level FlightAware
Thu 05:25:38 AM 33.2010 -100.5810 95° East 521 600 39,000  Level FlightAware
Thu 05:26:18 AM 33.1940 -100.4830 95° East 521 600 39,000  Level FlightAware
Thu 05:27:18 AM 33.1600 -100.1070 96° East 525 604 39,000  Level FlightAware
Thu 05:27:58 AM 33.1550 -100.0080 93° East 525 604 39,000  Level FlightAware
Thu 05:28:43 AM 33.1530 -99.8610 91° East 522 601 39,000  Level FlightAware
Thu 05:29:23 AM 33.1490 -99.7390 92° East 521 600 39,000  Level FlightAware
Thu 05:30:08 AM 33.1440 -99.6060 93° East 518 596 39,000 -353 Level FlightAware
Thu 05:30:48 AM 33.1400 -99.4950 92° East 524 603 38,500 -1,694 Descending FlightAware
Thu 05:31:33 AM 33.1350 -99.3690 93° East 527 606 36,600 -2,625 Descending FlightAware
Thu 05:32:08 AM 33.1310 -99.2690 93° East 529 609 35,000 -2,084 Descending FlightAware
Thu 05:33:08 AM 33.1230 -99.0990 93° East 529 609 33,300 -1,020 Descending FlightAware
Thu 05:33:48 AM 33.1190 -98.9990 93° East 529 609 33,300 -3,853 Level FlightAware
Thu 05:34:43 AM 33.1090 -98.8180 94° East 509 586 27,200 -4,800 Descending FlightAware
Thu 05:35:28 AM 33.1030 -98.6900 93° East 489 563 25,300 -1,467 Descending FlightAware
Thu 05:36:13 AM 33.0980 -98.5810 93° East 487 560 25,000 -2,329 Descending FlightAware
Thu 05:36:53 AM 33.0930 -98.4700 93° East 460 529 22,000 -2,337 Descending FlightAware
Thu 05:37:48 AM 33.0880 -98.3430 93° East 454 522 21,300 -2,340 Descending FlightAware
Thu 05:38:33 AM 33.0820 -98.2260 93° East 430 495 18,100 -2,400 Descending FlightAware
Thu 05:39:08 AM 33.0780 -98.1540 94° East 430 495 18,100 -2,325 Level FlightAware
Thu 05:39:53 AM 33.0730 -98.0420 93° East 407 468 15,000 -3,300 Descending FlightAware
Thu 05:40:28 AM 33.0690 -97.9680 94° East 398 458 13,700 -2,329 Descending FlightAware
Thu 05:41:18 AM 33.0630 -97.8580 94° East 385 443 11,700 -1,705 Descending FlightAware
Thu 05:42:03 AM 33.0580 -97.7660 94° East 347 399 11,000 -975 Descending FlightAware
Thu 05:42:38 AM 33.0550 -97.7080 94° East 330 380 10,400 -675 Descending FlightAware
Thu 05:43:23 AM 33.0510 -97.6250 93° East 293 337 10,100 -640 Descending FlightAware
Thu 05:43:53 AM 33.0480 -97.5760 94° East 285 328 9,600 -1,300 Descending FlightAware
Thu 05:44:23 AM 33.0460 -97.5280 93° East 291 335 8,800 -1,543 Descending FlightAware
Thu 05:45:03 AM 33.0420 -97.4640 94° East 290 334 7,800 -1,371 Descending FlightAware
Thu 05:45:33 AM 33.0400 -97.4170 93° East 285 328 7,200 -1,200 Descending FlightAware
Thu 05:46:13 AM 33.0370 -97.3540 93° East 280 322 6,400 -1,200 Descending FlightAware
Thu 05:46:28 AM 33.0350 -97.3330 96° East 280 322 6,100 -1,067 Descending FlightAware
Thu 05:46:58 AM 33.0330 -97.2860 93° East 271 312 5,600 -873 Descending FlightAware
Thu 05:47:23 AM 33.0310 -97.2490 94° East 259 298 5,300 -655 Descending FlightAware
Thu 05:47:53 AM 33.0280 -97.2070 95° East 248 285 5,000 -764 Descending FlightAware
Thu 05:48:18 AM 33.0260 -97.1740 94° East 244 281 4,600 -764 Descending FlightAware
Thu 05:48:48 AM 33.0240 -97.1360 94° East 226 260 4,300 -764 Descending FlightAware
Thu 05:49:13 AM 33.0230 -97.1050 92° East 219 252 3,900 -1,050 Descending FlightAware
Thu 05:49:28 AM 33.0210 -97.0860 97° East 211 243 3,600 -1,000 Descending FlightAware
Thu 05:49:43 AM 33.0160 -97.0710 112° Southeast 193 222 3,400 -600 Descending FlightAware
Thu 05:49:58 AM 33.0070 -97.0600 134° Southeast 172 198 3,300 -1,000 Descending FlightAware
Thu 05:50:13 AM 32.9970 -97.0540 153° Southeast 159 183 2,900 -1,600 Descending FlightAware
Thu 05:50:28 AM 32.9860 -97.0550 184° South 157 181 2,500 -1,080 Descending FlightAware
Thu 05:51:03 AM 32.9640 -97.0560 182° South 128 147 2,000 -600 Descending FlightAware
Thu 05:51:38 AM 32.9450 -97.0560 180° South 117 135 1,800 -343 Descending FlightAware

Login

Don't have an account? Register now (free) for customized features, flight alerts, and more!